Time;durP1;ratioP1;P1;durP2;ratioP2;P2;SDS_P1;SDS_P2;PMS_P1;PMS_P2;Temp;Humidity;BMP_temperature;BMP_pressure;BME280_temperature;BME280_humidity;BME280_pressure;Samples;Min_cycle;Max_cycle;Signal;HPM_P1;HPM_P2
2021/05/06 00:01:06;;;;;;;;;16.75;14.50;;;;;16.75;48.37;97679.81;4677095;29;103765;-76
2021/05/06 00:07:00;;;;;;;;;12.00;11.75;;;;;16.73;48.33;97682.78;4778163;29;103609;-76
2021/05/06 00:33:39;;;;;;;;;12.50;10.50;;;;;16.64;48.78;97728.03;4778523;29;103961;-76
2021/05/06 00:36:07;;;;;;;;;11.75;9.50;;;;;16.63;48.76;97723.66;4785250;29;102395;-76
2021/05/06 00:38:46;;;;;;;;;12.75;10.25;;;;;16.62;48.42;97734.81;4783062;29;102428;-76
2021/05/06 00:57:25;;;;;;;;;9.00;8.50;;;;;16.57;48.49;97732.84;4783973;29;103757;-76
2021/05/06 01:05:27;;;;;;;;;10.25;8.75;;;;;16.54;48.04;97738.81;4781434;29;104300;-75
2021/05/06 01:08:11;;;;;;;;;10.50;9.00;;;;;16.54;48.51;97749.75;4783321;29;102615;-75
2021/05/06 01:10:51;;;;;;;;;9.50;8.00;;;;;16.52;48.21;97743.75;4769090;29;104218;-75
2021/05/06 01:13:24;;;;;;;;;11.75;9.00;;;;;16.51;48.35;97747.53;4704398;29;109104;-76
2021/05/06 01:15:51;;;;;;;;;10.25;7.00;;;;;16.50;48.32;97738.53;4761485;29;102378;-75
2021/05/06 01:18:18;;;;;;;;;10.50;8.50;;;;;16.50;48.17;97741.25;4770307;29;102616;-75
2021/05/06 01:20:47;;;;;;;;;12.75;9.25;;;;;16.50;48.50;97741.25;4778376;29;102234;-76
2021/05/06 01:23:14;;;;;;;;;9.25;9.00;;;;;16.49;48.39;97744.22;4783860;29;104113;-75
2021/05/06 01:25:46;;;;;;;;;8.75;7.00;;;;;16.49;47.98;97739.59;4766073;29;102274;-75
2021/05/06 01:28:17;;;;;;;;;10.75;8.00;;;;;16.47;48.28;97749.97;4767498;29;102444;-75
2021/05/06 01:30:50;;;;;;;;;10.50;9.00;;;;;16.45;48.01;97746.66;4779735;29;102565;-76
2021/05/06 01:33:35;;;;;;;;;9.00;7.00;;;;;16.44;47.91;97744.19;4774925;29;104016;-75
2021/05/06 01:36:09;;;;;;;;;8.00;5.00;;;;;16.44;48.35;97744.19;4786213;29;102476;-75
2021/05/06 01:38:49;;;;;;;;;7.50;6.50;;;;;16.43;48.29;97743.38;4769121;29;102815;-75
2021/05/06 01:43:53;;;;;;;;;13.75;8.75;;;;;16.42;48.71;97740.91;4786017;29;105872;-75
2021/05/06 02:00:05;;;;;;;;;8.50;6.75;;;;;16.38;47.80;97739.78;4724552;29;103886;-75
2021/05/06 02:02:32;;;;;;;;;7.75;6.50;;;;;16.36;48.28;97736.47;4787424;29;103587;-75
2021/05/06 02:04:59;;;;;;;;;8.00;6.00;;;;;16.36;48.37;97733.75;4784243;29;104311;-75
2021/05/06 02:07:26;;;;;;;;;11.00;5.25;;;;;16.35;48.17;97734.81;4778246;29;104447;-76
2021/05/06 02:09:53;;;;;;;;;8.00;6.75;;;;;16.33;47.83;97734.28;4791611;29;103926;-75
2021/05/06 02:12:23;;;;;;;;;7.00;6.00;;;;;16.33;48.01;97745.19;4789661;29;105142;-75
2021/05/06 02:14:58;;;;;;;;;7.00;6.75;;;;;16.32;48.29;97743.53;4768403;29;104220;-75
2021/05/06 02:17:25;;;;;;;;;7.25;5.25;;;;;16.32;48.01;97746.25;4783940;29;102498;-75
2021/05/06 02:19:52;;;;;;;;;9.00;7.50;;;;;16.31;48.33;97750.91;4785983;29;102426;-75
2021/05/06 02:22:20;;;;;;;;;7.00;4.25;;;;;16.29;47.55;97758.53;4787909;29;102408;-75
2021/05/06 02:24:47;;;;;;;;;8.75;7.75;;;;;16.28;47.95;97745.13;4771510;29;104292;-75
2021/05/06 02:27:13;;;;;;;;;7.00;6.00;;;;;16.29;47.95;97753.06;4770154;29;102688;-75
2021/05/06 02:29:41;;;;;;;;;8.75;7.00;;;;;16.28;47.71;97756.06;4779412;29;103766;-76
2021/05/06 02:32:08;;;;;;;;;8.00;7.25;;;;;16.26;47.56;97741.84;4769813;29;103998;-75
2021/05/06 02:34:34;;;;;;;;;5.00;5.00;;;;;16.25;48.21;97757.41;4788259;29;105814;-75
2021/05/06 02:37:01;;;;;;;;;7.25;5.00;;;;;16.26;47.78;97761.75;4790310;29;105613;-76
2021/05/06 02:39:28;;;;;;;;;6.25;4.75;;;;;16.25;48.36;97765.59;4781544;29;102660;-75
2021/05/06 02:41:55;;;;;;;;;5.75;5.75;;;;;16.24;47.70;97765.84;4778305;29;102395;-76
2021/05/06 02:44:21;;;;;;;;;8.50;7.00;;;;;16.25;47.70;97770.22;4784951;29;104067;-75
2021/05/06 02:46:48;;;;;;;;;5.00;5.00;;;;;16.23;47.88;97770.47;4767402;29;102773;-75
2021/05/06 02:49:15;;;;;;;;;6.75;5.50;;;;;16.21;47.73;97771.81;4781984;29;103989;-76
2021/05/06 02:51:52;;;;;;;;;9.00;7.00;;;;;16.22;47.89;97784.34;4769019;29;104149;-75
2021/05/06 02:54:19;;;;;;;;;6.00;5.25;;;;;16.20;47.96;97776.44;4744826;29;108996;-76
2021/05/06 02:56:59;;;;;;;;;8.00;6.75;;;;;16.20;47.69;97784.63;4789156;29;108578;-75
2021/05/06 03:02:44;;;;;;;;;6.50;6.00;;;;;16.20;47.86;97787.34;4780714;29;105707;-75
2021/05/06 03:04:58;;;;;;;;;6.00;6.00;;;;;16.17;48.01;97787.03;4774535;29;104258;-75
2021/05/06 03:07:28;;;;;;;;;5.25;5.00;;;;;16.18;47.75;97794.13;4764385;29;102776;-75
2021/05/06 03:10:03;;;;;;;;;7.00;4.50;;;;;16.17;48.43;97795.19;4768440;29;103350;-75
2021/05/06 03:12:57;;;;;;;;;5.25;4.75;;;;;16.16;48.26;97804.50;4781321;29;102697;-75
2021/05/06 03:23:23;;;;;;;;;5.50;4.75;;;;;16.13;47.39;97814.00;4785116;29;103850;-75
2021/05/06 03:25:50;;;;;;;;;5.25;4.75;;;;;16.12;47.82;97812.34;4784969;29;104070;-75
2021/05/06 03:28:28;;;;;;;;;6.00;4.00;;;;;16.12;47.13;97817.78;4781055;29;103824;-75
2021/05/06 03:31:39;;;;;;;;;6.00;4.75;;;;;16.12;47.56;97817.00;4781318;29;102255;-76
2021/05/06 03:42:57;;;;;;;;;3.75;3.00;;;;;16.09;47.52;97823.75;4720258;29;103715;-75
2021/05/06 03:46:17;;;;;;;;;5.50;4.00;;;;;16.08;47.42;97833.00;4788195;29;103291;-76
2021/05/06 03:49:39;;;;;;;;;3.25;2.00;;;;;16.07;48.05;97832.19;4781947;29;110091;-75
2021/05/06 04:16:31;;;;;;;;;4.00;3.00;;;;;16.01;47.90;97865.94;4791825;29;103995;-75
2021/05/06 04:27:05;;;;;;;;;4.25;4.00;;;;;15.99;47.57;97889.91;4715454;29;103075;-76
2021/05/06 04:37:46;;;;;;;;;4.25;3.00;;;;;15.97;47.45;97908.44;4774691;29;102854;-75
2021/05/06 04:40:21;;;;;;;;;1.50;1.00;;;;;15.97;47.42;97913.06;4777023;29;102829;-75
2021/05/06 04:43:22;;;;;;;;;3.00;3.00;;;;;15.97;47.56;97905.72;4735775;29;112138;-75
2021/05/06 04:53:46;;;;;;;;;3.25;2.00;;;;;16.00;47.55;97918.84;4770360;29;104476;-75
2021/05/06 04:59:22;;;;;;;;;3.75;2.50;;;;;15.98;47.19;97918.28;4781156;29;102594;-76
2021/05/06 05:04:54;;;;;;;;;4.00;3.50;;;;;15.97;47.46;97919.34;4686517;29;108921;-76
2021/05/06 05:07:37;;;;;;;;;4.75;4.00;;;;;15.97;47.41;97913.06;4723460;29;102838;-76
2021/05/06 05:10:26;;;;;;;;;4.50;4.00;;;;;15.96;47.35;97914.97;4759313;29;103122;-76
2021/05/06 05:13:15;;;;;;;;;2.00;2.00;;;;;15.97;47.60;97922.06;4729285;29;102940;-76
2021/05/06 05:23:51;;;;;;;;;4.50;2.00;;;;;15.96;47.30;97917.69;4792219;29;102533;-76
2021/05/06 05:26:18;;;;;;;;;3.75;3.00;;;;;15.97;46.96;97924.81;4790309;29;105628;-76
2021/05/06 05:28:44;;;;;;;;;2.00;1.25;;;;;15.95;47.20;97918.75;4789983;29;102579;-76
2021/05/06 05:31:11;;;;;;;;;2.00;2.00;;;;;15.96;47.19;97923.16;4796300;29;102557;-76
2021/05/06 05:33:55;;;;;;;;;2.00;2.00;;;;;15.97;47.04;97924.81;4793211;29;102265;-76
2021/05/06 05:36:24;;;;;;;;;3.00;3.00;;;;;15.97;47.29;97922.06;4732243;29;108865;-76
2021/05/06 05:44:26;;;;;;;;;3.00;2.00;;;;;15.97;46.82;97927.53;4793733;29;102585;-76
2021/05/06 05:55:06;;;;;;;;;2.25;1.25;;;;;15.98;46.80;97926.47;4790990;29;102303;-76
2021/05/06 05:57:32;;;;;;;;;2.50;2.50;;;;;15.98;46.46;97922.91;4792413;29;104054;-76
2021/05/06 05:59:59;;;;;;;;;3.00;2.00;;;;;15.96;46.66;97923.16;4787573;29;102516;-76
2021/05/06 06:02:26;;;;;;;;;1.00;1.00;;;;;15.96;46.95;97923.16;4789278;29;102192;-76
2021/05/06 06:04:52;;;;;;;;;4.00;2.25;;;;;15.98;46.92;97915.56;4791641;29;102234;-76
2021/05/06 06:07:19;;;;;;;;;2.75;1.75;;;;;16.00;46.84;97918.00;4787824;29;105577;-76
2021/05/06 06:09:46;;;;;;;;;2.50;1.00;;;;;15.99;46.61;97916.34;4789938;29;102602;-76
2021/05/06 06:12:13;;;;;;;;;2.00;2.00;;;;;16.00;46.99;97924.28;4793404;29;102194;-76
2021/05/06 06:14:54;;;;;;;;;2.50;2.00;;;;;15.99;46.81;97916.34;4790228;29;102882;-76
2021/05/06 06:17:21;;;;;;;;;2.00;1.00;;;;;15.98;46.62;97914.72;4734740;29;109161;-76
2021/05/06 06:19:50;;;;;;;;;3.00;2.00;;;;;15.99;46.70;97921.81;4789759;29;102423;-76
2021/05/06 06:22:21;;;;;;;;;3.50;2.75;;;;;15.99;46.88;97919.06;4767522;29;102644;-76
2021/05/06 06:24:48;;;;;;;;;1.33;1.33;;;;;16.00;46.51;97916.09;4777531;29;102406;-76
2021/05/06 06:27:17;;;;;;;;;3.50;2.75;;;;;16.02;46.69;97913.97;4769645;29;104106;-77
2021/05/06 06:29:45;;;;;;;;;2.00;2.00;;;;;16.01;46.70;97914.22;4787603;29;104256;-76
2021/05/06 06:32:12;;;;;;;;;2.75;2.00;;;;;16.00;46.74;97905.19;4795254;29;102207;-76
2021/05/06 06:34:39;;;;;;;;;2.00;1.75;;;;;16.01;46.48;97915.03;4779000;29;103029;-76
2021/05/06 06:37:06;;;;;;;;;2.00;2.00;;;;;16.00;46.84;97916.09;4770832;29;104322;-76
2021/05/06 06:39:33;;;;;;;;;2.75;2.75;;;;;16.00;46.92;97909.81;4781284;29;102175;-76
2021/05/06 06:42:00;;;;;;;;;2.25;2.25;;;;;16.01;47.01;97904.13;4788153;29;105822;-76
2021/05/06 06:44:29;;;;;;;;;2.25;1.50;;;;;16.02;46.73;97899.50;4788139;29;102692;-76
2021/05/06 06:47:02;;;;;;;;;2.00;1.50;;;;;16.02;46.64;97908.50;4783200;29;103070;-76
2021/05/06 06:49:35;;;;;;;;;3.00;1.25;;;;;16.03;47.07;97907.41;4760406;29;102191;-76
2021/05/06 06:52:03;;;;;;;;;3.00;3.00;;;;;16.04;47.00;97908.25;4790099;29;103263;-76
2021/05/06 06:54:32;;;;;;;;;2.75;2.50;;;;;16.03;47.26;97915.59;4794131;29;102216;-76
2021/05/06 06:57:03;;;;;;;;;2.25;1.75;;;;;16.03;46.30;97909.31;4781799;29;104336;-76
2021/05/06 06:59:30;;;;;;;;;2.00;1.00;;;;;16.04;46.81;97914.53;4777518;29;102449;-76
2021/05/06 07:01:57;;;;;;;;;1.75;1.00;;;;;16.04;46.43;97913.69;4792628;29;102251;-76
2021/05/06 07:04:24;;;;;;;;;2.75;2.00;;;;;16.05;46.67;97926.25;4789848;29;102213;-76
2021/05/06 07:06:50;;;;;;;;;2.00;2.00;;;;;16.04;46.57;97917.25;4780205;29;105181;-76
2021/05/06 07:09:31;;;;;;;;;1.00;1.00;;;;;16.05;46.74;97915.34;4772738;29;102746;-76
2021/05/06 07:11:58;;;;;;;;;2.25;2.00;;;;;16.05;46.98;97918.91;4788774;29;103354;-76
2021/05/06 07:14:24;;;;;;;;;1.00;1.00;;;;;16.05;46.73;97910.72;4790618;29;102494;-76
2021/05/06 07:17:15;;;;;;;;;1.75;1.00;;;;;16.06;46.59;97922.47;4782901;29;109953;-76
2021/05/06 07:19:43;;;;;;;;;0.50;0.50;;;;;16.07;46.63;97916.72;4786931;29;102103;-76
2021/05/06 07:22:10;;;;;;;;;2.00;1.50;;;;;16.05;46.73;97921.63;4758881;29;102794;-76
2021/05/06 07:24:40;;;;;;;;;3.00;1.67;;;;;16.06;46.85;97914.28;4785441;29;102684;-76
2021/05/06 07:27:09;;;;;;;;;2.00;2.00;;;;;16.06;46.71;97917.84;4784859;29;104235;-76
2021/05/06 07:29:38;;;;;;;;;1.75;1.75;;;;;16.07;46.63;97922.19;4784608;29;102437;-76
2021/05/06 07:32:06;;;;;;;;;3.25;2.00;;;;;16.01;46.90;97920.50;4780620;29;104280;-76
2021/05/06 07:34:35;;;;;;;;;2.50;1.75;;;;;16.04;47.29;97925.44;4775074;29;102686;-76
2021/05/06 07:37:03;;;;;;;;;2.50;2.00;;;;;16.06;46.58;97911.56;4788001;29;104130;-76
2021/05/06 07:39:31;;;;;;;;;2.00;2.00;;;;;16.07;46.73;97926.84;4791381;29;107762;-76
2021/05/06 07:42:01;;;;;;;;;2.00;1.00;;;;;16.06;46.46;97917.84;4774229;29;103977;-76
2021/05/06 07:44:31;;;;;;;;;3.00;2.25;;;;;16.08;46.49;97915.66;4787194;29;102215;-76
2021/05/06 07:47:11;;;;;;;;;1.50;1.50;;;;;16.10;46.56;97920.03;4765396;29;104634;-76
2021/05/06 07:49:43;;;;;;;;;1.75;1.75;;;;;16.11;46.65;97927.16;4781398;29;102680;-76
2021/05/06 07:52:14;;;;;;;;;1.00;1.00;;;;;16.11;46.45;97913.53;4787537;29;102724;-76
2021/05/06 07:54:50;;;;;;;;;1.50;1.50;;;;;16.11;46.36;97913.53;4782199;29;104355;-76
2021/05/06 07:57:17;;;;;;;;;1.00;1.00;;;;;16.10;46.45;97912.69;4786474;29;104448;-76
2021/05/06 07:59:45;;;;;;;;;2.00;1.75;;;;;16.12;46.53;97920.63;4780902;29;102679;-76
2021/05/06 08:02:12;;;;;;;;;1.25;1.00;;;;;16.11;46.94;97917.06;4774923;29;105873;-76
2021/05/06 08:04:38;;;;;;;;;1.75;1.75;;;;;16.13;46.45;97922.25;4771170;29;104155;-76
2021/05/06 08:07:06;;;;;;;;;1.50;1.00;;;;;16.11;46.60;97911.63;4784801;29;104287;-76
2021/05/06 08:09:38;;;;;;;;;1.00;0.75;;;;;16.12;46.80;97910.53;4785945;29;104696;-76
2021/05/06 08:12:06;;;;;;;;;1.50;1.25;;;;;16.12;46.34;97915.97;4788012;29;102614;-76
2021/05/06 08:14:37;;;;;;;;;2.00;2.00;;;;;16.14;46.43;97913.00;4790916;29;102832;-76
2021/05/06 08:17:04;;;;;;;;;1.00;1.00;;;;;16.09;46.29;97900.13;4785366;29;104052;-76
2021/05/06 08:19:37;;;;;;;;;0.00;0.00;;;;;16.11;46.45;97905.34;4792057;29;102330;-76
2021/05/06 08:22:04;;;;;;;;;0.50;0.50;;;;;16.10;46.13;97914.59;4768903;29;102582;-76
2021/05/06 08:24:31;;;;;;;;;0.75;0.75;;;;;16.09;45.98;97916.50;4790613;29;102616;-76
2021/05/06 08:26:57;;;;;;;;;0.25;0.00;;;;;16.09;46.36;97911.03;4784768;29;104076;-76
2021/05/06 08:29:24;;;;;;;;;1.50;1.00;;;;;16.07;46.64;97916.72;4785940;29;102125;-76
2021/05/06 08:31:51;;;;;;;;;1.25;1.00;;;;;16.08;46.43;97904.75;4782599;29;102391;-76
2021/05/06 08:34:18;;;;;;;;;1.00;1.00;;;;;16.09;46.46;97891.94;4771594;29;102958;-76
2021/05/06 08:36:45;;;;;;;;;2.50;1.00;;;;;16.08;46.59;97893.84;4786256;29;104532;-76
2021/05/06 08:39:12;;;;;;;;;1.75;1.75;;;;;16.08;46.39;97895.75;4787606;29;103763;-76
2021/05/06 08:41:40;;;;;;;;;1.00;1.00;;;;;16.09;46.37;97897.41;4785401;29;103666;-76
2021/05/06 08:44:10;;;;;;;;;1.50;1.00;;;;;16.08;46.19;97896.56;4765823;29;102183;-77
2021/05/06 08:46:40;;;;;;;;;0.75;0.75;;;;;16.08;46.33;97893.00;4758882;29;103004;-77
2021/05/06 08:49:08;;;;;;;;;2.00;1.00;;;;;16.10;46.52;97884.59;4772166;29;102140;-77
2021/05/06 08:51:38;;;;;;;;;1.25;1.00;;;;;16.11;46.14;97884.34;4788940;29;102859;-76
2021/05/06 08:54:11;;;;;;;;;1.00;1.00;;;;;16.12;46.35;97882.44;4787588;29;102656;-76
2021/05/06 08:56:43;;;;;;;;;1.75;1.00;;;;;16.11;46.63;97888.97;4793387;29;103248;-76
2021/05/06 08:59:13;;;;;;;;;0.75;0.75;;;;;16.11;46.54;97875.34;4773178;29;102215;-77
2021/05/06 09:01:46;;;;;;;;;0.00;0.00;;;;;16.11;46.23;97887.06;4774488;29;104064;-76
2021/05/06 09:04:16;;;;;;;;;0.00;0.00;;;;;16.12;45.74;97879.72;4790264;29;102480;-76
2021/05/06 09:06:57;;;;;;;;;2.50;1.00;;;;;16.13;46.24;97878.63;4775983;29;107793;-76
2021/05/06 09:09:29;;;;;;;;;2.00;2.00;;;;;16.13;46.33;97889.53;4714508;29;104209;-77
2021/05/06 09:12:03;;;;;;;;;2.00;0.75;;;;;16.12;45.90;97883.25;4773648;29;104325;-77
2021/05/06 09:14:40;;;;;;;;;1.00;1.00;;;;;16.13;45.73;97889.53;4760778;29;103729;-76
2021/05/06 09:17:28;;;;;;;;;0.25;0.25;;;;;16.13;46.24;97884.06;4780069;29;103121;-76
2021/05/06 09:20:09;;;;;;;;;1.00;1.00;;;;;16.13;46.45;97881.34;4675604;29;102387;-77
2021/05/06 09:22:49;;;;;;;;;1.25;1.00;;;;;16.12;46.51;97890.63;4768361;29;102363;-76
2021/05/06 09:25:35;;;;;;;;;1.00;1.00;;;;;16.13;46.08;97894.97;4754874;29;103270;-76
2021/05/06 09:28:09;;;;;;;;;2.00;1.00;;;;;16.12;46.15;97902.34;4732452;29;108791;-77
2021/05/06 09:30:55;;;;;;;;;2.00;1.00;;;;;16.13;46.06;97895.81;4774165;29;104115;-76
2021/05/06 09:33:32;;;;;;;;;1.00;1.00;;;;;16.12;46.22;97898.81;4772434;29;102546;-77
2021/05/06 09:36:23;;;;;;;;;1.00;1.00;;;;;16.13;46.20;97889.53;4767881;29;102634;-76
2021/05/06 09:38:55;;;;;;;;;0.50;0.25;;;;;16.15;46.40;97892.84;4711608;29;107997;-77
2021/05/06 09:41:35;;;;;;;;;1.00;1.00;;;;;16.16;46.61;97897.22;4768944;29;102446;-76
2021/05/06 09:44:07;;;;;;;;;1.00;1.00;;;;;16.16;45.69;97886.31;4768447;29;103366;-77
2021/05/06 09:46:56;;;;;;;;;1.75;1.00;;;;;16.17;46.30;97882.47;4769121;29;102553;-76
2021/05/06 09:49:38;;;;;;;;;2.75;1.00;;;;;16.18;46.03;97887.69;4717598;29;108021;-77
2021/05/06 09:52:05;;;;;;;;;3.00;2.00;;;;;16.13;46.48;97889.53;4766958;29;102363;-77
2021/05/06 09:54:35;;;;;;;;;1.00;1.00;;;;;16.19;45.66;97891.25;4767720;29;104085;-77
2021/05/06 09:57:11;;;;;;;;;1.00;1.00;;;;;16.19;45.84;97877.63;4770015;29;102167;-77
2021/05/06 09:59:46;;;;;;;;;1.00;1.00;;;;;16.20;46.05;97879.28;4773407;29;103774;-76
2021/05/06 10:02:20;;;;;;;;;2.00;2.00;;;;;16.20;46.16;97882.00;4764535;29;102636;-76
2021/05/06 10:04:50;;;;;;;;;2.00;2.00;;;;;16.19;45.91;97878.44;4767088;29;102591;-77
2021/05/06 10:07:25;;;;;;;;;3.75;3.00;;;;;16.20;46.05;97890.19;4748151;29;102707;-77
2021/05/06 10:10:09;;;;;;;;;3.00;3.00;;;;;16.19;46.20;97883.91;4770235;29;103276;-77
2021/05/06 10:12:41;;;;;;;;;2.00;2.00;;;;;16.20;46.09;97892.91;4769402;29;104172;-77
2021/05/06 10:15:14;;;;;;;;;1.00;1.00;;;;;16.19;45.86;97911.19;4767311;29;102282;-77
2021/05/06 10:17:47;;;;;;;;;2.00;2.00;;;;;16.18;46.28;97914.16;4768468;29;102737;-77
2021/05/06 10:20:24;;;;;;;;;3.00;2.00;;;;;16.18;45.79;97928.59;4765415;29;108475;-77
2021/05/06 10:23:00;;;;;;;;;2.00;2.00;;;;;16.18;45.88;97914.16;4703573;29;102936;-77
2021/05/06 10:25:37;;;;;;;;;2.00;2.00;;;;;16.17;46.09;97912.50;4768922;29;102563;-77
2021/05/06 10:28:15;;;;;;;;;2.00;2.00;;;;;16.19;46.07;97913.06;4755207;29;102703;-77
2021/05/06 10:30:49;;;;;;;;;3.50;2.75;;;;;16.20;46.45;97906.53;4771705;29;108284;-77
2021/05/06 10:33:24;;;;;;;;;2.75;2.00;;;;;16.20;46.30;97907.38;4766591;29;105191;-77
2021/05/06 10:35:55;;;;;;;;;3.50;2.00;;;;;16.18;46.08;97901.34;4758654;29;102492;-76
2021/05/06 10:38:35;;;;;;;;;2.25;2.25;;;;;16.18;45.90;97905.97;4756915;29;102591;-77
2021/05/06 10:41:25;;;;;;;;;2.00;2.00;;;;;16.17;46.07;97907.84;4772242;29;103342;-77
2021/05/06 10:43:54;;;;;;;;;2.00;1.00;;;;;16.18;46.15;97909.50;4761737;29;103573;-77
2021/05/06 10:46:43;;;;;;;;;2.00;1.00;;;;;16.19;46.22;97913.06;4771777;29;102651;-76
2021/05/06 10:49:17;;;;;;;;;3.00;3.00;;;;;16.18;45.98;97914.16;4709788;29;103787;-77
2021/05/06 10:51:59;;;;;;;;;2.00;1.50;;;;;16.19;46.42;97916.63;4768681;29;111578;-77
2021/05/06 10:54:44;;;;;;;;;3.25;3.00;;;;;16.19;46.07;97905.72;4704947;29;102981;-77
2021/05/06 10:57:19;;;;;;;;;3.50;2.75;;;;;16.19;46.19;97902.16;4753211;29;102096;-77
2021/05/06 10:59:55;;;;;;;;;2.00;2.00;;;;;16.20;45.99;97907.38;4760901;29;109326;-77
2021/05/06 11:02:38;;;;;;;;;1.75;1.75;;;;;16.22;45.86;97901.66;4699277;29;108364;-77
2021/05/06 11:05:15;;;;;;;;;1.00;1.00;;;;;16.23;46.15;97906.03;4756938;29;103641;-77
2021/05/06 11:08:05;;;;;;;;;2.25;1.25;;;;;16.25;45.97;97903.88;4765767;29;102479;-77
2021/05/06 11:10:47;;;;;;;;;2.00;2.00;;;;;16.26;45.56;97894.59;4687234;29;102654;-77
2021/05/06 11:13:18;;;;;;;;;2.00;2.00;;;;;16.26;45.64;97884.50;4763860;29;104442;-77
2021/05/06 11:15:48;;;;;;;;;1.75;1.00;;;;;16.25;46.05;97882.88;4760687;29;104148;-77
2021/05/06 11:18:57;;;;;;;;;3.33;1.33;;;;;16.28;46.16;97893.28;4761911;29;103293;-77
2021/05/06 11:21:30;;;;;;;;;1.33;1.00;;;;;16.28;45.82;97887.81;4638385;29;103653;-77
2021/05/06 11:24:25;;;;;;;;;3.00;2.00;;;;;16.30;45.89;97888.38;4699414;29;104808;-77
2021/05/06 11:30:31;;;;;;;;;2.00;1.00;;;;;16.31;45.87;97872.84;4680366;29;103953;-77
2021/05/06 11:33:30;;;;;;;;;2.00;2.00;;;;;16.32;45.92;97877.22;4655344;29;102702;-77
2021/05/06 11:36:20;;;;;;;;;1.00;1.00;;;;;16.33;45.31;97876.16;4685229;29;109063;-77
2021/05/06 11:39:06;;;;;;;;;1.25;1.25;;;;;16.33;45.46;97854.31;4697418;29;102546;-77
2021/05/06 11:41:34;;;;;;;;;1.50;1.00;;;;;16.34;46.13;97864.16;4767966;29;102138;-77
2021/05/06 11:44:05;;;;;;;;;2.00;2.00;;;;;16.35;45.69;97852.16;4779877;29;105202;-77
2021/05/06 11:46:36;;;;;;;;;1.00;1.00;;;;;16.34;46.31;97862.25;4766091;29;104126;-77
2021/05/06 11:49:04;;;;;;;;;1.00;1.00;;;;;16.33;45.77;97851.59;4767293;29;102739;-77
2021/05/06 11:51:44;;;;;;;;;1.50;1.50;;;;;16.33;45.71;97855.16;4773143;29;102247;-77
2021/05/06 11:54:12;;;;;;;;;1.00;1.00;;;;;16.33;45.57;97851.59;4749951;29;102181;-77
2021/05/06 11:56:58;;;;;;;;;1.00;1.00;;;;;16.31;45.80;97857.28;4767339;29;104352;-77
2021/05/06 11:59:26;;;;;;;;;1.00;1.00;;;;;16.31;46.04;97856.47;4766858;29;102630;-76
2021/05/06 12:01:53;;;;;;;;;1.00;1.00;;;;;16.31;45.83;97853.75;4773247;29;102367;-76
2021/05/06 12:04:31;;;;;;;;;2.00;1.25;;;;;16.30;45.79;97850.19;4775018;29;102402;-77
2021/05/06 12:06:59;;;;;;;;;2.00;2.00;;;;;16.32;46.45;97849.94;4708215;29;107635;-77
2021/05/06 12:09:29;;;;;;;;;2.00;2.00;;;;;16.31;46.10;97851.84;4755750;29;102772;-77
2021/05/06 12:11:56;;;;;;;;;1.50;1.00;;;;;16.32;45.58;97874.50;4768990;29;103832;-77
2021/05/06 12:14:37;;;;;;;;;3.00;2.25;;;;;16.31;45.69;97860.03;4761650;29;102790;-77
2021/05/06 12:17:05;;;;;;;;;2.00;1.50;;;;;16.33;45.39;97851.59;4735186;29;104852;-77
2021/05/06 12:19:41;;;;;;;;;1.00;1.00;;;;;16.34;45.52;97843.16;4770773;29;102278;-77
2021/05/06 12:22:09;;;;;;;;;1.00;0.75;;;;;16.36;45.56;97835.53;4762468;29;103636;-77
2021/05/06 12:24:41;;;;;;;;;1.00;1.00;;;;;16.37;46.03;97836.34;4763589;29;102805;-77
2021/05/06 12:27:27;;;;;;;;;1.00;1.00;;;;;16.39;45.78;97828.75;4767422;29;104293;-77
2021/05/06 12:29:57;;;;;;;;;2.00;2.00;;;;;16.40;46.02;97827.66;4767768;29;103970;-77
2021/05/06 12:32:26;;;;;;;;;1.00;1.00;;;;;16.41;46.04;97823.84;4768317;29;102538;-77
2021/05/06 12:34:55;;;;;;;;;2.00;2.00;;;;;16.41;45.95;97815.66;4762989;29;103339;-78
2021/05/06 12:37:23;;;;;;;;;1.25;1.00;;;;;16.42;45.41;97811.84;4770155;29;104071;-77
2021/05/06 12:39:50;;;;;;;;;2.25;1.75;;;;;16.43;45.67;97813.50;4776748;29;102551;-77
2021/05/06 12:42:35;;;;;;;;;1.50;1.50;;;;;16.44;45.97;97826.88;4773753;29;102898;-77
2021/05/06 12:45:03;;;;;;;;;0.50;0.50;;;;;16.44;45.95;97818.69;4694511;29;102568;-77
2021/05/06 12:47:32;;;;;;;;;1.00;1.00;;;;;16.47;45.81;97825.56;4758805;29;104301;-77
2021/05/06 12:50:15;;;;;;;;;4.00;2.00;;;;;16.45;45.59;97820.34;4757503;29;102668;-77
2021/05/06 12:52:43;;;;;;;;;2.00;1.00;;;;;16.48;45.75;97817.09;4771966;29;102903;-77
2021/05/06 12:55:17;;;;;;;;;1.00;1.00;;;;;16.50;45.39;97808.66;4762405;29;102315;-77
2021/05/06 12:57:44;;;;;;;;;1.00;1.00;;;;;16.51;45.57;97800.22;4793537;29;104743;-77
2021/05/06 13:00:21;;;;;;;;;2.00;1.00;;;;;16.55;45.14;97802.41;4753772;29;102449;-77
2021/05/06 13:02:48;;;;;;;;;2.00;1.00;;;;;16.58;45.54;97813.66;4772192;29;104356;-77
2021/05/06 13:05:34;;;;;;;;;1.00;1.00;;;;;16.59;45.82;97807.13;4793793;29;102377;-77
2021/05/06 13:08:01;;;;;;;;;1.00;1.00;;;;;16.61;45.23;97798.69;4692195;29;109012;-77
2021/05/06 13:10:39;;;;;;;;;1.00;1.00;;;;;16.63;45.09;97793.78;4749405;29;103125;-77
2021/05/06 13:13:06;;;;;;;;;0.50;0.50;;;;;16.63;45.46;97791.06;4773453;29;104034;-77
2021/05/06 13:15:49;;;;;;;;;2.00;1.00;;;;;16.65;45.58;97805.28;4760014;29;102831;-77
2021/05/06 13:18:16;;;;;;;;;2.00;1.00;;;;;16.65;45.34;97800.66;4781243;29;104350;-77
2021/05/06 13:20:43;;;;;;;;;2.00;2.00;;;;;16.66;45.43;97796.81;4766966;29;102199;-77
2021/05/06 13:23:10;;;;;;;;;1.25;1.25;;;;;16.68;45.96;97794.66;4775774;29;102695;-77
2021/05/06 13:25:42;;;;;;;;;1.00;1.00;;;;;16.70;45.13;97794.41;4793661;29;102202;-77
2021/05/06 13:28:10;;;;;;;;;1.00;1.00;;;;;16.71;45.42;97794.13;4765973;29;103644;-77
2021/05/06 13:30:37;;;;;;;;;1.00;1.00;;;;;16.73;45.33;97797.44;4770873;29;102817;-77
2021/05/06 13:33:21;;;;;;;;;1.00;1.00;;;;;16.77;45.21;97795.00;4787347;29;104219;-77
2021/05/06 13:36:07;;;;;;;;;1.00;1.00;;;;;16.79;45.11;97792.84;4770962;29;102592;-77
2021/05/06 13:38:56;;;;;;;;;1.50;1.50;;;;;16.84;45.06;97795.63;4765964;29;104181;-77
2021/05/06 13:41:30;;;;;;;;;1.25;1.00;;;;;16.85;45.60;97795.34;4779510;29;102223;-77
2021/05/06 13:43:58;;;;;;;;;2.25;2.00;;;;;16.87;45.05;97779.53;4776555;29;102659;-77
2021/05/06 13:46:26;;;;;;;;;1.00;1.00;;;;;16.88;45.29;97773.00;4773251;29;102774;-77
2021/05/06 13:48:53;;;;;;;;;1.00;1.00;;;;;16.88;45.32;97783.09;4787786;29;104344;-77
2021/05/06 13:51:21;;;;;;;;;1.00;1.00;;;;;16.88;44.63;97783.09;4775114;29;102553;-77
2021/05/06 13:53:49;;;;;;;;;1.75;1.75;;;;;16.84;45.46;97769.13;4786240;29;103596;-77
2021/05/06 13:56:16;;;;;;;;;0.33;0.00;;;;;16.89;45.15;97771.06;4789783;29;102674;-77
2021/05/06 13:58:43;;;;;;;;;0.33;0.33;;;;;16.90;45.33;97775.44;4782396;29;103412;-77
2021/05/06 14:01:10;;;;;;;;;1.00;1.00;;;;;16.91;45.15;97769.75;4775269;29;102937;-77
2021/05/06 14:03:37;;;;;;;;;1.00;0.00;;;;;16.95;44.76;97768.13;4785208;29;106067;-77
2021/05/06 14:06:04;;;;;;;;;2.67;1.00;;;;;17.01;45.55;97760.78;4790989;29;102771;-77
2021/05/06 14:08:31;;;;;;;;;1.00;1.00;;;;;17.04;44.25;97753.97;4786849;29;104266;-77
2021/05/06 14:10:58;;;;;;;;;1.00;1.00;;;;;17.07;44.92;97745.25;4772206;29;102654;-77
2021/05/06 14:13:25;;;;;;;;;1.00;1.00;;;;;17.09;45.37;97735.72;4786248;29;102598;-77
2021/05/06 14:15:52;;;;;;;;;1.00;1.00;;;;;17.14;45.13;97748.59;4757985;29;102546;-76
2021/05/06 14:18:19;;;;;;;;;3.50;2.00;;;;;17.15;45.54;97742.03;4788389;29;109164;-77
2021/05/06 14:20:46;;;;;;;;;1.00;1.00;;;;;17.17;45.06;97737.13;4781046;29;102681;-77
2021/05/06 14:23:16;;;;;;;;;1.00;1.00;;;;;17.20;44.84;97742.06;4767673;29;102446;-77
2021/05/06 14:25:43;;;;;;;;;1.00;1.00;;;;;17.21;45.21;97738.22;4758427;29;102654;-76
2021/05/06 14:28:12;;;;;;;;;1.00;1.00;;;;;17.21;44.65;97722.66;4773462;29;104150;-77
2021/05/06 14:30:59;;;;;;;;;0.00;0.00;;;;;17.22;44.57;97734.41;4779291;29;102408;-77
2021/05/06 14:33:31;;;;;;;;;1.00;1.00;;;;;17.24;43.01;97740.47;4770725;29;103209;-76
2021/05/06 14:36:09;;;;;;;;;2.00;1.25;;;;;17.25;40.29;97733.88;4767562;29;104389;-75